Time;durP1;ratioP1;P1;durP2;ratioP2;P2;SDS_P1;SDS_P2;PMS_P1;PMS_P2;Temp;Humidity;BMP_temperature;BMP_pressure;BME280_temperature;BME280_humidity;BME280_pressure;Samples;Min_cycle;Max_cycle;Signal;HPM_P1;HPM_P2
2023/01/31 00:01:31;;;;;;;26.90;14.48;;;1.30;99.90;;;;;;5017594;28;20043;-68
2023/01/31 00:04:05;;;;;;;25.55;14.43;;;1.30;99.90;;;;;;5019914;28;20045;-69
2023/01/31 00:06:37;;;;;;;23.50;14.18;;;1.30;99.90;;;;;;5020704;28;20271;-69
2023/01/31 00:09:06;;;;;;;24.17;14.20;;;1.30;99.90;;;;;;5018212;28;20037;-68
2023/01/31 00:11:33;;;;;;;23.27;12.93;;;1.30;99.90;;;;;;5019634;28;20246;-69
2023/01/31 00:14:01;;;;;;;22.27;12.90;;;1.30;99.90;;;;;;5037327;28;20079;-68
2023/01/31 00:16:29;;;;;;;23.25;12.90;;;1.30;99.90;;;;;;5017662;28;20107;-68
2023/01/31 00:18:55;;;;;;;22.90;12.20;;;1.20;99.90;;;;;;5018973;28;20152;-69
2023/01/31 00:21:24;;;;;;;;;;;1.20;99.90;;;;;;5020526;28;20053;-68
2023/01/31 00:23:52;;;;;;;21.38;12.48;;;1.20;99.90;;;;;;5021013;28;20071;-69
2023/01/31 00:26:19;;;;;;;21.17;12.77;;;1.20;99.90;;;;;;5020517;28;20083;-67
2023/01/31 00:28:47;;;;;;;22.38;12.15;;;1.20;99.90;;;;;;5019504;28;20376;-69
2023/01/31 00:31:15;;;;;;;20.80;12.30;;;1.20;99.90;;;;;;5035169;28;20057;-69
2023/01/31 00:33:44;;;;;;;19.67;11.60;;;1.20;99.90;;;;;;5000348;28;20041;-69
2023/01/31 00:36:15;;;;;;;24.50;13.60;;;1.10;99.90;;;;;;5003261;28;20076;-68
2023/01/31 00:38:46;;;;;;;25.20;13.73;;;1.10;99.90;;;;;;5019286;28;20048;-68
2023/01/31 00:41:13;;;;;;;21.33;12.93;;;1.10;99.90;;;;;;5011031;28;20057;-68
2023/01/31 00:43:40;;;;;;;22.58;12.80;;;1.10;99.90;;;;;;5021004;28;20042;-69
2023/01/31 00:46:08;;;;;;;25.45;12.80;;;1.10;99.90;;;;;;5022856;28;20553;-68
2023/01/31 00:48:35;;;;;;;26.08;13.40;;;1.00;99.90;;;;;;5016644;28;20368;-69
2023/01/31 00:51:03;;;;;;;25.02;13.13;;;1.00;99.90;;;;;;5018202;28;20045;-68
2023/01/31 00:53:30;;;;;;;18.35;10.50;;;1.00;99.90;;;;;;5020422;28;20438;-68
2023/01/31 00:56:12;;;;;;;20.77;12.07;;;1.00;99.90;;;;;;5012458;28;20435;-68
2023/01/31 00:58:40;;;;;;;20.45;12.32;;;0.90;99.90;;;;;;5011041;28;20578;-69
2023/01/31 01:01:22;;;;;;;21.35;12.23;;;0.90;99.90;;;;;;5017696;28;20602;-68
2023/01/31 01:03:50;;;;;;;22.45;12.10;;;0.80;99.90;;;;;;5002727;28;20041;-69
2023/01/31 01:06:18;;;;;;;21.23;12.65;;;0.90;99.90;;;;;;5002000;28;20069;-69
2023/01/31 01:08:45;;;;;;;23.55;13.00;;;0.90;99.90;;;;;;5018787;28;20539;-66
2023/01/31 01:11:15;;;;;;;19.85;12.63;;;0.90;99.90;;;;;;5035135;28;20132;-67
2023/01/31 01:13:43;;;;;;;24.05;12.90;;;0.90;99.90;;;;;;5001942;28;20526;-67
2023/01/31 01:16:13;;;;;;;21.75;12.30;;;0.90;99.90;;;;;;5022695;28;20503;-69
2023/01/31 01:18:40;;;;;;;24.98;14.38;;;0.80;99.90;;;;;;5018004;28;20110;-68
2023/01/31 01:21:09;;;;;;;22.92;13.68;;;0.90;99.90;;;;;;5020214;28;20558;-69
2023/01/31 01:23:37;;;;;;;22.98;11.88;;;0.90;99.90;;;;;;5011797;28;20311;-68
2023/01/31 01:26:05;;;;;;;22.67;13.27;;;0.90;99.90;;;;;;5021547;28;20046;-68
2023/01/31 01:28:34;;;;;;;23.25;13.77;;;0.90;99.90;;;;;;5020998;28;20266;-69
2023/01/31 01:31:06;;;;;;;24.15;14.30;;;0.90;99.90;;;;;;5015441;28;20577;-67
2023/01/31 01:33:33;;;;;;;24.10;14.48;;;0.90;99.90;;;;;;5020847;28;20064;-71
2023/01/31 01:36:05;;;;;;;21.42;12.10;;;0.90;99.90;;;;;;5040776;28;20041;-69
2023/01/31 01:38:35;;;;;;;18.42;11.43;;;0.90;99.90;;;;;;5003338;28;20059;-69
2023/01/31 01:41:04;;;;;;;22.95;11.88;;;0.90;99.90;;;;;;5015884;28;20482;-69
2023/01/31 01:43:43;;;;;;;17.05;10.73;;;0.90;99.90;;;;;;5024010;28;20128;-69
2023/01/31 01:46:24;;;;;;;20.10;10.93;;;0.90;99.90;;;;;;5024961;28;20049;-69
2023/01/31 01:48:57;;;;;;;19.90;11.57;;;0.90;99.90;;;;;;5021764;28;20535;-68
2023/01/31 01:51:24;;;;;;;20.00;11.35;;;0.90;99.90;;;;;;5002830;28;20049;-69
2023/01/31 01:53:56;;;;;;;19.88;11.38;;;0.90;99.90;;;;;;5025950;28;20110;-69
2023/01/31 01:56:32;;;;;;;19.20;10.90;;;0.90;99.90;;;;;;5005171;28;20072;-69
2023/01/31 01:59:11;;;;;;;23.08;11.98;;;0.90;99.90;;;;;;5023771;28;20053;-69
2023/01/31 02:01:38;;;;;;;21.85;11.88;;;0.90;99.90;;;;;;5025090;28;20076;-68
2023/01/31 02:04:14;;;;;;;17.88;10.18;;;0.90;99.90;;;;;;5007440;28;20056;-67
2023/01/31 02:06:42;;;;;;;20.90;12.23;;;0.80;99.90;;;;;;5024167;28;20107;-68
2023/01/31 02:09:33;;;;;;;18.52;10.45;;;0.80;99.90;;;;;;5023956;28;20426;-68
2023/01/31 02:12:04;;;;;;;21.60;12.15;;;0.80;99.90;;;;;;5020912;28;20041;-68
2023/01/31 02:14:30;;;;;;;21.85;12.65;;;0.80;99.90;;;;;;5023050;28;20132;-69
2023/01/31 02:16:57;;;;;;;20.63;12.52;;;0.80;99.90;;;;;;5025226;28;20042;-68
2023/01/31 02:19:38;;;;;;;;;;;0.80;99.90;;;;;;5014356;28;20179;-69
2023/01/31 02:22:26;;;;;;;21.40;11.10;;;0.80;99.90;;;;;;5021847;28;19932;-67
2023/01/31 02:25:05;;;;;;;22.83;13.10;;;0.80;99.90;;;;;;5024991;28;20099;-67
2023/01/31 02:28:00;;;;;;;19.33;11.75;;;0.80;99.90;;;;;;5021467;28;20053;-66
2023/01/31 02:30:49;;;;;;;20.70;10.52;;;0.80;99.90;;;;;;5014374;28;20332;-66
2023/01/31 02:33:41;;;;;;;20.30;11.73;;;0.80;99.90;;;;;;5035074;28;20127;-66
2023/01/31 02:36:17;;;;;;;22.38;12.48;;;0.80;99.90;;;;;;5023033;28;20410;-68
2023/01/31 02:39:18;;;;;;;16.92;10.35;;;0.80;99.90;;;;;;5021259;28;20386;-68
2023/01/31 02:42:11;;;;;;;21.63;11.63;;;0.80;99.90;;;;;;5006054;28;20049;-68
2023/01/31 02:45:15;;;;;;;19.67;11.18;;;0.80;99.90;;;;;;4999694;28;20053;-67
2023/01/31 02:48:10;;;;;;;18.88;10.23;;;0.80;99.90;;;;;;5003912;28;20499;-67
2023/01/31 02:51:13;;;;;;;26.65;11.57;;;0.80;99.90;;;;;;5004956;28;20462;-67
2023/01/31 02:53:48;;;;;;;22.30;11.57;;;0.70;99.90;;;;;;5012022;28;20269;-66
2023/01/31 02:56:30;;;;;;;22.67;12.23;;;0.70;99.90;;;;;;5013448;28;20049;-66
2023/01/31 02:59:05;;;;;;;23.15;11.38;;;0.70;99.90;;;;;;5012110;28;20060;-66
2023/01/31 03:01:55;;;;;;;19.60;11.27;;;0.60;99.90;;;;;;5020224;28;20077;-67
2023/01/31 03:04:22;;;;;;;21.65;12.25;;;0.60;99.90;;;;;;5033880;28;20053;-67
2023/01/31 03:07:01;;;;;;;20.65;11.75;;;0.60;99.90;;;;;;5021453;28;20670;-68
2023/01/31 03:09:38;;;;;;;26.15;13.27;;;0.50;99.90;;;;;;5032697;28;20046;-67
2023/01/31 03:12:30;;;;;;;19.33;10.68;;;0.50;99.90;;;;;;5002967;28;20201;-66
2023/01/31 03:15:01;;;;;;;22.52;12.35;;;0.50;99.90;;;;;;5013246;28;20530;-66
2023/01/31 03:17:45;;;;;;;18.08;10.45;;;0.50;99.90;;;;;;5016697;28;20258;-67
2023/01/31 03:20:44;;;;;;;22.58;12.18;;;0.50;99.90;;;;;;5020577;28;20049;-68
2023/01/31 03:23:17;;;;;;;22.98;11.73;;;0.50;99.90;;;;;;5010083;28;20061;-69
2023/01/31 03:25:48;;;;;;;23.55;13.10;;;0.50;99.90;;;;;;5021059;28;20337;-68
2023/01/31 03:28:19;;;;;;;20.50;12.20;;;0.50;99.90;;;;;;5016144;28;20822;-68
2023/01/31 03:31:04;;;;;;;24.90;11.10;;;0.50;99.90;;;;;;5019669;28;20573;-68
2023/01/31 03:33:39;;;;;;;26.83;13.10;;;0.50;99.90;;;;;;5004215;28;20041;-68
2023/01/31 03:36:22;;;;;;;23.02;11.73;;;0.50;99.90;;;;;;5020356;28;20049;-68
2023/01/31 03:39:07;;;;;;;24.40;14.23;;;0.50;99.90;;;;;;5012371;28;20616;-68
2023/01/31 03:42:06;;;;;;;29.17;13.98;;;0.50;99.90;;;;;;5002592;28;20045;-67
2023/01/31 03:45:01;;;;;;;21.67;12.30;;;0.50;99.90;;;;;;5010831;28;20060;-67
2023/01/31 03:47:39;;;;;;;20.05;10.52;;;0.50;99.90;;;;;;5013834;28;20060;-68
2023/01/31 03:50:23;;;;;;;19.02;10.82;;;0.50;99.90;;;;;;5015776;28;20068;-68
2023/01/31 03:52:57;;;;;;;20.92;11.48;;;0.50;99.90;;;;;;5032995;28;20586;-68
2023/01/31 03:55:33;;;;;;;20.77;11.25;;;0.40;99.90;;;;;;4999799;28;20045;-68
2023/01/31 03:58:03;;;;;;;29.05;12.48;;;0.40;99.90;;;;;;5017342;28;20446;-68
2023/01/31 04:00:34;;;;;;;21.63;11.88;;;0.40;99.90;;;;;;5019150;28;20055;-68
2023/01/31 04:03:13;;;;;;;24.02;11.68;;;0.40;99.90;;;;;;5004253;28;20151;-68
2023/01/31 04:05:40;;;;;;;26.92;13.10;;;0.40;99.90;;;;;;5020662;28;20052;-67
2023/01/31 04:08:07;;;;;;;18.77;10.98;;;0.40;99.90;;;;;;5016383;28;20224;-69
2023/01/31 04:10:34;;;;;;;21.75;12.18;;;0.40;99.90;;;;;;5010572;28;20049;-68
2023/01/31 04:13:01;;;;;;;;;;;0.40;99.90;;;;;;5021906;28;20037;-67
2023/01/31 04:15:27;;;;;;;20.73;11.13;;;0.40;99.90;;;;;;5021885;28;20454;-68
2023/01/31 04:17:54;;;;;;;20.08;12.05;;;0.40;99.90;;;;;;5018500;28;20037;-67
2023/01/31 04:20:21;;;;;;;18.45;10.40;;;0.50;99.90;;;;;;5019966;28;20265;-68
2023/01/31 04:22:47;;;;;;;;;;;0.50;99.90;;;;;;5020314;28;20049;-67
2023/01/31 04:25:14;;;;;;;15.65;8.77;;;0.50;99.90;;;;;;5022045;28;19924;-66
2023/01/31 04:27:41;;;;;;;15.35;9.00;;;0.50;99.90;;;;;;5022420;28;20041;-68
2023/01/31 04:30:08;;;;;;;;;;;0.50;99.90;;;;;;5015165;28;20045;-67
2023/01/31 04:32:35;;;;;;;18.77;10.13;;;0.50;99.90;;;;;;5020300;28;19933;-68
2023/01/31 04:35:02;;;;;;;16.67;10.13;;;0.50;99.90;;;;;;5019578;28;20692;-67
2023/01/31 04:37:29;;;;;;;18.67;10.32;;;0.40;99.90;;;;;;5019368;28;20041;-67
2023/01/31 04:39:56;;;;;;;;;;;0.40;99.90;;;;;;5022536;28;20102;-67
2023/01/31 04:42:22;;;;;;;16.17;9.38;;;0.50;99.90;;;;;;5022023;28;19925;-67
2023/01/31 04:44:49;;;;;;;20.83;11.18;;;0.50;99.90;;;;;;5019575;28;20051;-67
2023/01/31 04:47:16;;;;;;;17.38;10.18;;;0.50;99.90;;;;;;5012182;28;20211;-67
2023/01/31 04:49:43;;;;;;;16.63;9.60;;;0.50;99.90;;;;;;5021038;28;20128;-67
2023/01/31 04:52:10;;;;;;;19.45;10.18;;;0.50;99.90;;;;;;5021884;28;20289;-67
2023/01/31 04:54:37;;;;;;;16.85;9.45;;;0.50;99.90;;;;;;5019162;28;20041;-67
2023/01/31 04:57:03;;;;;;;;;;;0.50;99.90;;;;;;5021597;28;20128;-67
2023/01/31 04:59:30;;;;;;;13.98;8.68;;;0.50;99.90;;;;;;5020817;28;19925;-69
2023/01/31 05:01:57;;;;;;;;;;;0.50;99.90;;;;;;5019438;28;20115;-67
2023/01/31 05:04:25;;;;;;;18.33;10.63;;;0.50;99.90;;;;;;5001744;28;20035;-67
2023/01/31 05:06:52;;;;;;;17.23;10.88;;;0.50;99.90;;;;;;5018037;28;20596;-68
2023/01/31 05:09:19;;;;;;;21.48;10.23;;;0.50;99.90;;;;;;5020278;28;20575;-66
2023/01/31 05:11:46;;;;;;;18.05;10.93;;;0.50;99.90;;;;;;5019621;28;20476;-67
2023/01/31 05:14:13;;;;;;;19.20;10.52;;;0.50;99.90;;;;;;5020543;28;20041;-67
2023/01/31 05:16:42;;;;;;;15.32;9.65;;;0.50;99.90;;;;;;5018505;28;20461;-68
2023/01/31 05:19:09;;;;;;;19.20;10.40;;;0.60;99.90;;;;;;5021926;28;20053;-67
2023/01/31 05:21:53;;;;;;;;;;;0.60;99.90;;;;;;5021479;28;20033;-66
2023/01/31 05:24:21;;;;;;;17.83;10.27;;;0.60;99.90;;;;;;5001181;28;19921;-67
2023/01/31 05:26:50;;;;;;;19.60;10.57;;;0.60;99.90;;;;;;5020904;28;20073;-67
2023/01/31 05:29:18;;;;;;;23.55;11.77;;;0.60;99.90;;;;;;5020454;28;20045;-69
2023/01/31 05:31:45;;;;;;;20.90;11.00;;;0.60;99.90;;;;;;5021010;28;20041;-68
2023/01/31 05:34:14;;;;;;;;;;;0.60;99.90;;;;;;5021916;28;20052;-68
2023/01/31 05:36:43;;;;;;;20.05;11.82;;;0.60;99.90;;;;;;5021217;28;20312;-68
2023/01/31 05:39:10;;;;;;;20.17;11.68;;;0.60;99.90;;;;;;5017346;28;20125;-68
2023/01/31 05:41:37;;;;;;;;;;;0.60;99.90;;;;;;5020911;28;20503;-67
2023/01/31 05:44:04;;;;;;;18.50;11.18;;;0.60;99.90;;;;;;5019686;28;19925;-68
2023/01/31 05:46:30;;;;;;;22.10;10.45;;;0.60;99.90;;;;;;5019261;28;20090;-69
2023/01/31 05:48:58;;;;;;;22.92;11.50;;;0.60;99.90;;;;;;5009452;28;20381;-67
2023/01/31 05:51:24;;;;;;;;;;;0.60;99.90;;;;;;5015716;28;20249;-67
2023/01/31 05:53:51;;;;;;;19.27;10.05;;;0.60;99.90;;;;;;5018761;28;20264;-67
2023/01/31 05:56:17;;;;;;;;;;;0.60;99.90;;;;;;5018471;28;20444;-68
2023/01/31 05:58:49;;;;;;;15.68;9.73;;;0.60;99.90;;;;;;5018682;28;20015;-68
2023/01/31 06:01:21;;;;;;;16.00;10.40;;;0.60;99.90;;;;;;5019041;28;20334;-67
2023/01/31 06:03:48;;;;;;;17.00;10.23;;;0.60;99.90;;;;;;5019630;28;20225;-67
2023/01/31 06:06:15;;;;;;;19.30;10.43;;;0.60;99.90;;;;;;5021320;28;20042;-67
2023/01/31 06:08:42;;;;;;;18.95;9.85;;;0.60;99.90;;;;;;5019740;28;20382;-68
2023/01/31 06:11:11;;;;;;;15.77;9.63;;;0.60;99.90;;;;;;5019961;28;20115;-68
2023/01/31 06:13:39;;;;;;;15.15;8.48;;;0.60;99.90;;;;;;5023466;28;20042;-68
2023/01/31 06:16:06;;;;;;;14.98;9.20;;;0.60;99.90;;;;;;5023675;28;20752;-69
2023/01/31 06:18:33;;;;;;;13.60;8.65;;;0.60;99.90;;;;;;5026534;28;20045;-68
2023/01/31 06:20:59;;;;;;;;;;;0.50;99.90;;;;;;5026357;28;20129;-66
2023/01/31 06:23:26;;;;;;;14.20;9.27;;;0.50;99.90;;;;;;5026679;28;19954;-67
2023/01/31 06:25:54;;;;;;;13.45;8.85;;;0.50;99.90;;;;;;5023603;28;20128;-67
2023/01/31 06:28:22;;;;;;;14.60;8.35;;;0.50;99.90;;;;;;5023346;28;20164;-67
2023/01/31 06:30:49;;;;;;;16.00;8.60;;;0.50;99.90;;;;;;5025165;28;20045;-68
2023/01/31 06:33:16;;;;;;;15.88;8.38;;;0.50;99.90;;;;;;5024625;28;20278;-68
2023/01/31 06:35:43;;;;;;;15.73;8.80;;;0.50;99.90;;;;;;5026014;28;20045;-68
2023/01/31 06:38:12;;;;;;;19.83;11.35;;;0.50;99.90;;;;;;5025321;28;20045;-68
2023/01/31 06:40:38;;;;;;;17.40;9.75;;;0.50;99.90;;;;;;5024882;28;20128;-67
2023/01/31 06:43:05;;;;;;;;;;;0.50;99.90;;;;;;5023545;28;20378;-69
2023/01/31 06:45:31;;;;;;;15.73;8.20;;;0.50;99.90;;;;;;5026749;28;19925;-68
2023/01/31 06:47:58;;;;;;;20.30;10.25;;;0.50;99.90;;;;;;5023361;28;20616;-69
2023/01/31 06:50:25;;;;;;;;;;;0.50;99.90;;;;;;5028697;28;20040;-67
2023/01/31 06:52:52;;;;;;;23.55;10.80;;;0.50;99.90;;;;;;5024604;28;19969;-66
2023/01/31 06:55:18;;;;;;;;;;;0.50;99.90;;;;;;5040787;28;20068;-68
2023/01/31 06:57:49;;;;;;;16.23;8.95;;;0.50;99.90;;;;;;5015480;28;20192;-67
2023/01/31 07:00:17;;;;;;;15.45;9.60;;;0.50;99.90;;;;;;5024560;28;20270;-66
2023/01/31 07:02:45;;;;;;;16.00;9.88;;;0.50;99.90;;;;;;5027204;28;20117;-56
2023/01/31 07:05:12;;;;;;;19.88;10.38;;;0.50;99.90;;;;;;5026044;28;20116;-60
2023/01/31 07:07:39;;;;;;;18.92;11.27;;;0.50;99.90;;;;;;5021470;28;20403;-61
2023/01/31 07:10:06;;;;;;;21.20;11.77;;;0.50;99.90;;;;;;5016261;28;20516;-62
2023/01/31 07:12:33;;;;;;;19.73;10.50;;;0.50;99.90;;;;;;5024217;28;20137;-60
2023/01/31 07:15:00;;;;;;;22.45;11.20;;;0.50;99.90;;;;;;5022245;28;20081;-62
2023/01/31 07:17:27;;;;;;;21.52;12.93;;;0.50;99.90;;;;;;5023839;28;20213;-60
2023/01/31 07:19:53;;;;;;;;;;;0.60;99.90;;;;;;5022191;28;20450;-59
2023/01/31 07:22:20;;;;;;;19.13;11.27;;;0.60;99.90;;;;;;5010325;28;20035;-61
2023/01/31 07:24:49;;;;;;;18.75;11.15;;;0.60;99.90;;;;;;4996076;28;20527;-62
2023/01/31 07:27:17;;;;;;;19.25;12.30;;;0.60;99.90;;;;;;5010139;28;20356;-61
2023/01/31 07:29:43;;;;;;;21.92;12.85;;;0.60;99.90;;;;;;5011268;28;20041;-59
2023/01/31 07:32:10;;;;;;;21.83;12.27;;;0.60;99.90;;;;;;5000988;28;20366;-59
2023/01/31 07:34:37;;;;;;;16.77;10.15;;;0.60;99.90;;;;;;5009489;28;20278;-61
2023/01/31 07:37:04;;;;;;;19.80;11.13;;;0.60;99.90;;;;;;5011224;28;20111;-58
2023/01/31 07:39:31;;;;;;;;;;;0.70;99.90;;;;;;5008488;28;20041;-61
2023/01/31 07:41:57;;;;;;;16.80;9.95;;;0.70;99.90;;;;;;5010434;28;20460;-61
2023/01/31 07:44:24;;;;;;;;;;;0.70;99.90;;;;;;5008232;28;20053;-60
2023/01/31 07:46:53;;;;;;;18.70;10.80;;;0.70;99.90;;;;;;5010306;28;19991;-61
2023/01/31 07:49:20;;;;;;;23.10;12.55;;;0.70;99.90;;;;;;5010267;28;20092;-57
2023/01/31 07:51:46;;;;;;;;;;;0.70;99.90;;;;;;5010041;28;20397;-59
2023/01/31 07:54:13;;;;;;;15.68;9.55;;;0.80;99.90;;;;;;4990608;28;20027;-58
2023/01/31 07:56:40;;;;;;;;;;;0.80;99.90;;;;;;5025023;28;20041;-60
2023/01/31 07:59:07;;;;;;;18.77;10.85;;;0.80;99.90;;;;;;5003436;28;20328;-56
2023/01/31 08:04:19;;;;;;;18.50;10.13;;;0.90;99.90;;;;;;5007985;28;20083;-59
2023/01/31 08:06:52;;;;;;;23.08;12.65;;;0.90;99.90;;;;;;5001695;28;20048;-57
2023/01/31 08:09:18;;;;;;;23.35;12.25;;;1.00;99.90;;;;;;5009746;28;20280;-60
2023/01/31 08:11:45;;;;;;;;;;;1.10;99.90;;;;;;5008984;28;20042;-61
2023/01/31 08:14:13;;;;;;;17.40;10.23;;;1.10;99.90;;;;;;5008527;28;19932;-58
2023/01/31 08:16:39;;;;;;;26.65;13.07;;;1.20;99.90;;;;;;5008535;28;20045;-59
2023/01/31 08:19:06;;;;;;;17.42;11.00;;;1.20;99.90;;;;;;5010370;28;20111;-58
2023/01/31 08:21:33;;;;;;;;;;;1.30;99.90;;;;;;5008730;28;20396;-56
2023/01/31 08:24:00;;;;;;;19.95;10.32;;;1.30;99.90;;;;;;5008122;28;19995;-57
2023/01/31 08:26:26;;;;;;;;;;;1.40;99.90;;;;;;4996073;28;20473;-58
2023/01/31 08:28:53;;;;;;;17.27;10.75;;;1.50;99.90;;;;;;5008497;28;20804;-58
2023/01/31 08:31:21;;;;;;;;;;;1.60;99.90;;;;;;5009243;28;20076;-55
2023/01/31 08:33:52;;;;;;;21.77;11.48;;;1.70;99.90;;;;;;5001314;28;19972;-59
2023/01/31 08:36:22;;;;;;;21.15;11.60;;;2.10;99.90;;;;;;4994701;28;20052;-57
2023/01/31 08:38:49;;;;;;;30.33;13.85;;;2.40;99.90;;;;;;5007231;28;20095;-57
2023/01/31 08:41:18;;;;;;;28.55;12.63;;;2.90;99.90;;;;;;5008212;28;20053;-58
2023/01/31 08:43:47;;;;;;;15.10;9.10;;;3.50;99.90;;;;;;5010605;28;20836;-57
2023/01/31 08:46:26;;;;;;;9.32;6.25;;;4.00;99.90;;;;;;5009246;28;20129;-58
2023/01/31 08:48:53;;;;;;;12.38;5.70;;;4.50;99.90;;;;;;5008650;28;20462;-58
2023/01/31 08:51:21;;;;;;;7.53;4.07;;;4.80;99.90;;;;;;5008143;28;20123;-59
2023/01/31 08:53:48;;;;;;;7.63;4.68;;;5.00;99.90;;;;;;5008443;28;20319;-59
2023/01/31 08:56:15;;;;;;;7.90;3.97;;;5.10;99.90;;;;;;5010492;28;20373;-60
2023/01/31 08:58:43;;;;;;;6.18;3.72;;;5.20;99.90;;;;;;5008979;28;20831;-58
2023/01/31 09:01:13;;;;;;;7.15;4.28;;;5.20;99.90;;;;;;5006016;28;20212;-57
2023/01/31 09:03:40;;;;;;;7.82;4.40;;;5.30;99.90;;;;;;5007659;28;20046;-55
2023/01/31 09:06:15;;;;;;;7.80;4.00;;;5.40;99.90;;;;;;5000422;28;20389;-58
2023/01/31 09:10:53;;;;;;;7.82;4.47;;;5.70;99.90;;;;;;5045234;28;20844;-57
2023/01/31 09:13:21;;;;;;;8.77;4.45;;;5.90;99.90;;;;;;5028537;28;20072;-56
2023/01/31 09:15:57;;;;;;;7.47;4.55;;;6.00;99.90;;;;;;5032962;28;20045;-60
2023/01/31 09:18:24;;;;;;;8.18;4.20;;;6.10;99.90;;;;;;5026639;28;20099;-61
2023/01/31 09:20:51;;;;;;;7.93;5.25;;;6.30;99.90;;;;;;5024643;28;20079;-59
2023/01/31 09:23:19;;;;;;;7.32;4.53;;;6.40;99.90;;;;;;5026377;28;20052;-61
2023/01/31 09:25:55;;;;;;;10.02;5.28;;;6.70;99.90;;;;;;5023713;28;20157;-61
2023/01/31 09:28:22;;;;;;;8.40;4.38;;;6.90;99.90;;;;;;5023142;28;20148;-58
2023/01/31 09:30:52;;;;;;;7.13;4.45;;;7.10;99.90;;;;;;5023707;28;20191;-57
2023/01/31 09:33:20;;;;;;;8.90;4.85;;;7.30;98.90;;;;;;5025020;28;20056;-58
2023/01/31 09:35:57;;;;;;;7.15;4.30;;;7.60;96.90;;;;;;5025369;28;20069;-58
2023/01/31 09:38:25;;;;;;;8.32;4.53;;;7.70;98.70;;;;;;5021983;28;20037;-58
2023/01/31 09:40:52;;;;;;;7.72;4.50;;;7.90;97.10;;;;;;5025325;28;20148;-57
2023/01/31 09:43:24;;;;;;;7.70;4.82;;;8.10;96.10;;;;;;5025340;28;20053;-57
2023/01/31 09:45:55;;;;;;;6.50;4.70;;;8.40;93.20;;;;;;5024602;28;20662;-55
2023/01/31 09:48:27;;;;;;;6.97;4.05;;;8.60;91.30;;;;;;5025301;28;20049;-57
2023/01/31 09:50:57;;;;;;;7.95;5.20;;;8.80;91.60;;;;;;5034304;28;20495;-57
2023/01/31 09:53:29;;;;;;;8.50;4.90;;;9.00;91.10;;;;;;5026567;28;21054;-56
2023/01/31 09:56:23;;;;;;;6.45;4.72;;;9.20;88.40;;;;;;5027316;28;20977;-57
2023/01/31 09:59:01;;;;;;;7.60;5.15;;;9.30;86.80;;;;;;5023437;28;20605;-57
2023/01/31 10:01:42;;;;;;;7.13;4.80;;;9.40;84.40;;;;;;5023589;28;20208;-56
2023/01/31 10:04:38;;;;;;;9.77;4.78;;;9.60;82.90;;;;;;5022080;28;20041;-55
2023/01/31 10:07:16;;;;;;;6.78;4.60;;;9.60;78.20;;;;;;5025680;28;20040;-58
2023/01/31 10:09:48;;;;;;;7.07;4.22;;;9.60;81.30;;;;;;5026356;28;20322;-57
2023/01/31 10:12:24;;;;;;;8.43;5.22;;;9.70;79.80;;;;;;5026170;28;20053;-58
2023/01/31 10:14:52;;;;;;;6.72;4.22;;;9.60;78.80;;;;;;5024427;28;20053;-61
2023/01/31 10:17:27;;;;;;;7.47;4.57;;;9.60;76.90;;;;;;5019485;28;20051;-58
2023/01/31 10:20:30;;;;;;;7.68;5.57;;;9.70;77.00;;;;;;5020835;28;20296;-59
2023/01/31 10:23:17;;;;;;;9.88;5.22;;;9.80;76.80;;;;;;5010200;28;20052;-59
2023/01/31 10:25:59;;;;;;;6.40;4.20;;;9.80;74.80;;;;;;5014115;28;20045;-59
2023/01/31 10:28:48;;;;;;;8.60;4.55;;;9.90;78.20;;;;;;5019276;28;20556;-59
2023/01/31 10:31:31;;;;;;;13.07;4.68;;;10.10;74.80;;;;;;5011981;28;20472;-60
2023/01/31 10:34:20;;;;;;;7.85;5.25;;;10.40;73.40;;;;;;5013130;28;20041;-59
2023/01/31 10:37:22;;;;;;;7.78;4.53;;;10.50;72.10;;;;;;5009729;28;20276;-58
2023/01/31 10:39:53;;;;;;;6.28;4.75;;;10.50;68.60;;;;;;4992400;28;20423;-60
2023/01/31 10:42:33;;;;;;;7.35;5.40;;;10.50;68.60;;;;;;5010705;28;20496;-59
2023/01/31 10:45:10;;;;;;;6.97;4.85;;;10.30;69.70;;;;;;5010788;28;20569;-60
2023/01/31 10:48:00;;;;;;;7.03;4.75;;;10.00;72.10;;;;;;5010746;28;20192;-61
2023/01/31 10:50:38;;;;;;;7.07;5.28;;;10.10;73.90;;;;;;5010048;28;20049;-58
2023/01/31 10:53:32;;;;;;;12.40;5.38;;;10.20;73.20;;;;;;5012877;28;20104;-58
2023/01/31 10:55:59;;;;;;;8.45;5.35;;;10.20;72.70;;;;;;5010925;28;20116;-56
2023/01/31 10:58:26;;;;;;;8.40;5.75;;;10.20;71.30;;;;;;5007575;28;20515;-58
2023/01/31 11:00:53;;;;;;;;;;;10.10;72.30;;;;;;5013729;28;20445;-58
2023/01/31 11:03:20;;;;;;;9.17;6.63;;;10.10;72.30;;;;;;5009971;28;19929;-57
2023/01/31 11:05:55;;;;;;;10.20;6.65;;;10.30;71.40;;;;;;5011173;28;20048;-60
2023/01/31 11:08:47;;;;;;;12.13;5.53;;;10.30;69.90;;;;;;5006590;28;20419;-59
2023/01/31 11:11:19;;;;;;;7.60;5.75;;;10.40;69.50;;;;;;5004294;28;20057;-59
2023/01/31 11:13:58;;;;;;;8.57;5.78;;;10.40;71.00;;;;;;5017078;28;20106;-60
2023/01/31 11:16:32;;;;;;;10.43;5.90;;;10.50;68.20;;;;;;5008298;28;20414;-60
2023/01/31 11:19:03;;;;;;;11.45;5.47;;;10.60;68.30;;;;;;5008499;28;20790;-60
2023/01/31 11:21:33;;;;;;;9.82;6.15;;;10.60;65.80;;;;;;5009901;28;20059;-59
2023/01/31 11:24:06;;;;;;;9.65;5.07;;;10.50;68.60;;;;;;5011739;28;20060;-59
2023/01/31 11:26:36;;;;;;;8.40;4.55;;;10.50;68.40;;;;;;5012851;28;20515;-61
2023/01/31 11:29:16;;;;;;;7.15;4.80;;;10.40;68.10;;;;;;5010897;28;20056;-57
2023/01/31 11:31:46;;;;;;;8.93;6.13;;;10.30;69.50;;;;;;5009494;28;20260;-63
2023/01/31 11:34:22;;;;;;;11.02;6.13;;;10.40;69.50;;;;;;5007405;28;20225;-59
2023/01/31 11:36:49;;;;;;;7.78;5.78;;;10.30;69.30;;;;;;5010719;28;20124;-58
2023/01/31 11:39:36;;;;;;;7.60;5.63;;;10.30;70.00;;;;;;5016734;28;20102;-58
2023/01/31 11:42:13;;;;;;;8.77;5.15;;;10.30;69.50;;;;;;5008590;28;20042;-58
2023/01/31 11:44:58;;;;;;;10.20;6.18;;;10.00;68.80;;;;;;5010690;28;20045;-58
2023/01/31 11:47:32;;;;;;;8.40;5.82;;;9.80;68.80;;;;;;5008151;28;20186;-58
2023/01/31 11:50:01;;;;;;;10.40;6.43;;;9.60;70.80;;;;;;5003837;28;20052;-58
2023/01/31 11:52:31;;;;;;;8.88;6.30;;;9.30;72.00;;;;;;5010617;28;20674;-57
2023/01/31 11:55:08;;;;;;;8.65;5.65;;;9.00;73.10;;;;;;5008846;28;20041;-57
2023/01/31 11:57:38;;;;;;;9.45;7.20;;;8.60;74.70;;;;;;5009242;28;20051;-59
2023/01/31 12:00:27;;;;;;;12.10;6.47;;;8.30;76.30;;;;;;5008394;28;20048;-56
2023/01/31 12:03:20;;;;;;;8.07;5.57;;;8.00;77.80;;;;;;5008460;28;20076;-57
2023/01/31 12:05:51;;;;;;;9.10;6.38;;;7.70;81.30;;;;;;5007168;28;20092;-57
2023/01/31 12:08:30;;;;;;;10.27;5.70;;;7.40;82.40;;;;;;5007974;28;20049;-58
2023/01/31 12:10:58;;;;;;;12.50;5.63;;;7.20;83.90;;;;;;5009243;28;20626;-57
2023/01/31 12:13:27;;;;;;;12.52;6.80;;;7.00;85.70;;;;;;5010981;28;20042;-57
2023/01/31 12:16:04;;;;;;;9.57;6.47;;;6.90;87.30;;;;;;5009421;28;20048;-58
2023/01/31 12:18:37;;;;;;;9.10;6.25;;;6.70;88.70;;;;;;5007930;28;20448;-58
2023/01/31 12:21:26;;;;;;;9.93;6.40;;;6.60;91.40;;;;;;5009629;28;20256;-59
2023/01/31 12:24:17;;;;;;;11.20;6.93;;;6.50;92.50;;;;;;5008792;28;20285;-58
2023/01/31 12:26:49;;;;;;;9.68;6.30;;;6.50;93.30;;;;;;5024592;28;20209;-55
2023/01/31 12:29:45;;;;;;;9.52;6.15;;;6.40;94.10;;;;;;5014132;28;20072;-55
2023/01/31 12:32:51;;;;;;;10.63;6.82;;;6.30;93.90;;;;;;5007789;28;20060;-56
2023/01/31 12:35:42;;;;;;;9.90;6.15;;;6.20;94.10;;;;;;5010659;28;20426;-55
2023/01/31 12:38:24;;;;;;;11.13;6.20;;;6.10;95.40;;;;;;5010399;28;20049;-59
2023/01/31 12:41:03;;;;;;;9.10;6.10;;;6.00;95.80;;;;;;5011997;28;20056;-59
2023/01/31 12:43:57;;;;;;;12.15;5.90;;;6.00;96.20;;;;;;5008883;28;20615;-56
2023/01/31 12:46:47;;;;;;;9.40;6.15;;;6.00;96.60;;;;;;5009843;28;20042;-59
2023/01/31 12:49:57;;;;;;;10.63;6.30;;;5.90;96.90;;;;;;5009118;28;20467;-55
2023/01/31 12:52:46;;;;;;;11.38;5.97;;;6.00;97.80;;;;;;5010683;28;20033;-58
2023/01/31 12:55:21;;;;;;;12.35;6.57;;;6.30;97.50;;;;;;5010097;28;20045;-59
2023/01/31 12:58:08;;;;;;;9.23;5.65;;;6.70;95.60;;;;;;5009301;28;20076;-58
2023/01/31 13:01:02;;;;;;;9.95;6.35;;;7.00;95.30;;;;;;5015735;28;20269;-57
2023/01/31 13:03:32;;;;;;;8.85;6.03;;;7.40;92.80;;;;;;5008057;28;20052;-58
2023/01/31 13:06:06;;;;;;;16.55;7.45;;;7.60;91.80;;;;;;5007161;28;20349;-58
2023/01/31 13:08:36;;;;;;;10.88;6.85;;;7.70;92.00;;;;;;5008561;28;20175;-59
2023/01/31 13:11:19;;;;;;;13.45;7.63;;;8.00;91.60;;;;;;5009850;28;20543;-60
2023/01/31 13:14:04;;;;;;;16.45;8.30;;;8.20;90.90;;;;;;5010297;28;20086;-58
2023/01/31 13:16:37;;;;;;;13.30;9.10;;;8.20;90.20;;;;;;5009131;28;20743;-59
2023/01/31 13:19:09;;;;;;;12.02;8.00;;;8.10;90.60;;;;;;5008250;28;20468;-58
2023/01/31 13:21:42;;;;;;;13.98;7.80;;;7.90;91.30;;;;;;5008198;28;20049;-58
2023/01/31 13:24:18;;;;;;;12.38;8.50;;;7.80;91.70;;;;;;5010730;28;20136;-60
2023/01/31 13:26:50;;;;;;;15.40;9.90;;;7.90;92.30;;;;;;5008878;28;20334;-60